Time;durP1;ratioP1;P1;durP2;ratioP2;P2;SDS_P1;SDS_P2;PMS_P1;PMS_P2;Temp;Humidity;BMP_temperature;BMP_pressure;BME280_temperature;BME280_humidity;BME280_pressure;Samples;Min_cycle;Max_cycle;Signal;HPM_P1;HPM_P2
2022/07/05 00:00:03;;;;;;;1.40;0.47;;;19.60;91.70;;;;;;4993289;28;20038;-90
2022/07/05 00:02:28;;;;;;;0.80;0.30;;;19.70;91.80;;;;;;4994573;28;20343;-89
2022/07/05 00:04:54;;;;;;;0.90;0.50;;;19.60;91.50;;;;;;4993449;28;20029;-90
2022/07/05 00:07:20;;;;;;;1.75;0.45;;;19.70;91.80;;;;;;4994192;28;20041;-89
2022/07/05 00:09:51;;;;;;;1.75;0.50;;;19.70;92.10;;;;;;4990076;28;20379;-89
2022/07/05 00:12:19;;;;;;;1.77;0.63;;;19.70;92.50;;;;;;4994180;28;20058;-90
2022/07/05 00:14:47;;;;;;;1.38;0.52;;;19.60;92.90;;;;;;4996324;28;20082;-90
2022/07/05 00:17:13;;;;;;;1.60;0.57;;;19.50;92.90;;;;;;4998159;28;20049;-89
2022/07/05 00:19:39;;;;;;;2.05;0.40;;;19.50;93.00;;;;;;5019132;28;20100;-89
2022/07/05 00:22:05;;;;;;;0.63;0.38;;;19.40;92.30;;;;;;5020485;28;20057;-89
2022/07/05 00:24:31;;;;;;;1.20;0.40;;;19.40;92.20;;;;;;5011213;28;20030;-89
2022/07/05 00:26:57;;;;;;;0.90;0.40;;;19.40;92.20;;;;;;5012506;28;20034;-89
2022/07/05 00:29:22;;;;;;;0.93;0.43;;;19.40;92.30;;;;;;4993820;28;20034;-90
2022/07/05 00:31:48;;;;;;;0.47;0.30;;;19.40;92.40;;;;;;4996073;28;20021;-89
2022/07/05 00:34:14;;;;;;;1.13;0.43;;;19.40;92.60;;;;;;4994594;28;20029;-90
2022/07/05 00:36:40;;;;;;;0.98;0.40;;;19.40;92.60;;;;;;5011226;28;20589;-89
2022/07/05 00:39:07;;;;;;;0.60;0.30;;;19.40;92.60;;;;;;5012277;28;20403;-89
2022/07/05 00:41:33;;;;;;;1.95;0.28;;;19.50;92.70;;;;;;4997056;28;20049;-89
2022/07/05 00:44:01;;;;;;;1.00;0.43;;;19.40;93.00;;;;;;4996154;28;20499;-90
2022/07/05 00:46:27;;;;;;;0.90;0.30;;;19.30;92.90;;;;;;4993630;28;20475;-90
2022/07/05 00:48:54;;;;;;;1.77;0.55;;;19.30;92.80;;;;;;4990745;28;20034;-89
2022/07/05 00:51:21;;;;;;;1.67;0.30;;;19.30;92.50;;;;;;4991471;28;20053;-89
2022/07/05 00:53:48;;;;;;;1.42;0.47;;;19.30;92.40;;;;;;4996536;28;20393;-89
2022/07/05 00:56:14;;;;;;;0.93;0.30;;;19.10;92.40;;;;;;5007994;28;20022;-89
2022/07/05 00:58:40;;;;;;;1.10;0.40;;;19.30;92.60;;;;;;4994090;28;20030;-89
2022/07/05 01:01:09;;;;;;;0.57;0.28;;;19.30;92.60;;;;;;4987769;28;20092;-90
2022/07/05 01:03:35;;;;;;;1.00;0.47;;;19.30;93.10;;;;;;4992380;28;20025;-89
2022/07/05 01:06:02;;;;;;;1.48;0.40;;;19.20;93.10;;;;;;4994825;28;20147;-88
2022/07/05 01:08:28;;;;;;;1.83;0.40;;;19.20;93.10;;;;;;5011616;28;20072;-89
2022/07/05 01:10:55;;;;;;;0.52;0.40;;;19.10;92.80;;;;;;4992299;28;20095;-89
2022/07/05 01:13:22;;;;;;;0.93;0.40;;;19.10;93.40;;;;;;4988794;28;20025;-89
2022/07/05 01:15:49;;;;;;;1.65;0.52;;;19.00;93.90;;;;;;4991289;28;20030;-89
2022/07/05 01:18:15;;;;;;;1.23;0.43;;;18.90;94.00;;;;;;4991534;28;20026;-89
2022/07/05 01:20:41;;;;;;;1.40;0.50;;;18.80;93.90;;;;;;5007207;28;20026;-90
2022/07/05 01:23:10;;;;;;;1.77;0.63;;;18.70;93.90;;;;;;4989246;28;20049;-89
2022/07/05 01:25:36;;;;;;;0.60;0.52;;;18.70;93.90;;;;;;4989604;28;20099;-89
2022/07/05 01:28:03;;;;;;;1.52;0.40;;;18.70;93.60;;;;;;4989520;28;20766;-89
2022/07/05 01:30:33;;;;;;;1.48;0.35;;;18.70;93.30;;;;;;4990746;28;20108;-89
2022/07/05 01:32:59;;;;;;;1.25;0.22;;;18.70;93.20;;;;;;5009647;28;20434;-89
2022/07/05 01:35:24;;;;;;;1.73;0.30;;;18.70;93.10;;;;;;4990132;28;20033;-89
2022/07/05 01:37:51;;;;;;;1.23;0.40;;;18.70;93.00;;;;;;4990293;28;20037;-89
2022/07/05 01:40:18;;;;;;;0.43;0.30;;;18.70;92.70;;;;;;4991568;28;20051;-90
2022/07/05 01:42:44;;;;;;;1.95;0.28;;;18.70;92.80;;;;;;4987107;28;20022;-89
2022/07/05 01:45:11;;;;;;;0.60;0.30;;;18.80;93.50;;;;;;4985928;28;20033;-89
2022/07/05 01:47:40;;;;;;;0.63;0.38;;;18.80;92.60;;;;;;4991131;28;20037;-89
2022/07/05 01:50:08;;;;;;;0.63;0.30;;;18.70;93.00;;;;;;5007966;28;20113;-89
2022/07/05 01:52:38;;;;;;;0.93;0.35;;;18.70;93.20;;;;;;4989939;28;20026;-89
2022/07/05 01:55:04;;;;;;;0.60;0.30;;;18.70;93.20;;;;;;4992821;28;20026;-90
2022/07/05 01:57:30;;;;;;;0.65;0.30;;;18.70;93.20;;;;;;4991806;28;20038;-88
2022/07/05 01:59:56;;;;;;;0.90;0.50;;;18.60;93.20;;;;;;4990865;28;20040;-89
2022/07/05 02:02:21;;;;;;;1.63;0.40;;;18.60;93.50;;;;;;4989624;28;20028;-89
2022/07/05 02:04:47;;;;;;;1.02;0.40;;;18.60;93.70;;;;;;4992338;28;20026;-89
2022/07/05 02:07:12;;;;;;;0.93;0.20;;;18.50;93.70;;;;;;5007938;28;20026;-89
2022/07/05 02:09:38;;;;;;;1.00;0.50;;;18.50;94.00;;;;;;4993847;28;20033;-89
2022/07/05 02:12:05;;;;;;;0.22;0.20;;;18.40;94.20;;;;;;5014575;28;20075;-89
2022/07/05 02:14:30;;;;;;;1.00;0.28;;;18.30;94.50;;;;;;4997247;28;20052;-88
2022/07/05 02:16:56;;;;;;;0.60;0.30;;;18.20;94.30;;;;;;4993421;28;20117;-89
2022/07/05 02:19:22;;;;;;;1.00;0.25;;;18.20;94.30;;;;;;4995656;28;20018;-90
2022/07/05 02:21:51;;;;;;;1.17;0.30;;;18.20;94.70;;;;;;4993092;28;20026;-89
2022/07/05 02:24:16;;;;;;;0.35;0.25;;;18.20;95.00;;;;;;4992285;28;20033;-89
2022/07/05 02:26:42;;;;;;;0.98;0.40;;;18.10;95.00;;;;;;4989415;28;20019;-89
2022/07/05 02:29:08;;;;;;;1.08;0.30;;;18.10;95.10;;;;;;4991584;28;20494;-89
2022/07/05 02:31:34;;;;;;;4.68;0.57;;;18.10;95.10;;;;;;4988164;28;20026;-90
2022/07/05 02:33:59;;;;;;;1.95;0.50;;;18.10;95.10;;;;;;4983590;28;20113;-89
2022/07/05 02:36:28;;;;;;;1.40;0.50;;;18.10;95.50;;;;;;5009763;28;20058;-89
2022/07/05 02:38:54;;;;;;;0.70;0.30;;;18.00;95.50;;;;;;4993331;28;20486;-90
2022/07/05 02:41:19;;;;;;;3.05;0.40;;;18.00;95.80;;;;;;5011902;28;20037;-89
2022/07/05 02:43:45;;;;;;;0.98;0.40;;;18.00;95.80;;;;;;5013166;28;20054;-89
2022/07/05 02:46:11;;;;;;;0.95;0.40;;;17.90;96.10;;;;;;4997102;28;20026;-90
2022/07/05 02:48:37;;;;;;;1.20;0.50;;;17.80;96.40;;;;;;4994901;28;20116;-90
2022/07/05 02:51:03;;;;;;;2.20;0.50;;;17.80;96.60;;;;;;4989107;28;20029;-89
2022/07/05 02:53:29;;;;;;;1.23;0.50;;;17.80;96.80;;;;;;4995229;28;20033;-90
2022/07/05 02:55:55;;;;;;;1.23;0.60;;;17.70;96.90;;;;;;4994452;28;20033;-90
2022/07/05 02:58:21;;;;;;;1.10;0.50;;;17.70;97.10;;;;;;4993630;28;20037;-89
2022/07/05 03:00:48;;;;;;;1.80;0.57;;;17.70;97.40;;;;;;4997572;28;20090;-90
2022/07/05 03:03:14;;;;;;;1.30;0.63;;;17.60;97.50;;;;;;5033694;28;20080;-90
2022/07/05 03:05:40;;;;;;;1.00;0.50;;;17.60;97.70;;;;;;5010066;28;20125;-90
2022/07/05 03:08:06;;;;;;;1.20;0.63;;;17.60;97.70;;;;;;5000072;28;20058;-90
2022/07/05 03:10:36;;;;;;;1.67;0.60;;;17.60;97.90;;;;;;4994376;28;20029;-90
2022/07/05 03:13:02;;;;;;;1.60;0.50;;;17.60;98.00;;;;;;4991716;28;20030;-90
2022/07/05 03:15:28;;;;;;;1.55;0.68;;;17.60;98.10;;;;;;4995279;28;20096;-89
2022/07/05 03:17:53;;;;;;;1.15;0.50;;;17.50;98.10;;;;;;4993654;28;20052;-89
2022/07/05 03:20:19;;;;;;;1.50;0.65;;;17.20;98.00;;;;;;5014126;28;20504;-89
2022/07/05 03:22:45;;;;;;;2.00;0.70;;;17.40;98.50;;;;;;5013106;28;20018;-89
2022/07/05 03:25:10;;;;;;;1.77;0.70;;;17.40;98.70;;;;;;4993591;28;20110;-90
2022/07/05 03:27:36;;;;;;;1.52;0.60;;;17.40;98.90;;;;;;4993065;28;20029;-89
2022/07/05 03:30:04;;;;;;;2.10;0.70;;;17.40;98.90;;;;;;5011276;28;20425;-90
2022/07/05 03:32:29;;;;;;;1.38;0.60;;;17.30;99.40;;;;;;4995703;28;20113;-89
2022/07/05 03:34:55;;;;;;;1.48;0.52;;;17.30;99.10;;;;;;5010549;28;20100;-89
2022/07/05 03:37:21;;;;;;;1.48;0.50;;;17.30;98.90;;;;;;5012013;28;20035;-90
2022/07/05 03:39:46;;;;;;;1.25;0.57;;;17.30;99.20;;;;;;4994338;28;20061;-90
2022/07/05 03:42:12;;;;;;;1.98;0.60;;;17.20;99.40;;;;;;4992405;28;20127;-90
2022/07/05 03:44:37;;;;;;;1.27;0.60;;;17.30;99.90;;;;;;4992891;28;20122;-90
2022/07/05 03:47:03;;;;;;;1.23;0.60;;;17.80;99.90;;;;;;4990979;28;20025;-89
2022/07/05 03:49:29;;;;;;;1.90;0.63;;;17.20;99.90;;;;;;4993487;28;20398;-90
2022/07/05 03:51:55;;;;;;;2.45;0.57;;;17.10;99.90;;;;;;4987217;28;20034;-90
2022/07/05 03:54:20;;;;;;;2.17;0.65;;;16.90;99.90;;;;;;5012094;28;20069;-90
2022/07/05 03:56:47;;;;;;;0.98;0.45;;;17.10;99.90;;;;;;4990082;28;20187;-90
2022/07/05 03:59:13;;;;;;;1.65;0.75;;;17.20;99.90;;;;;;5012618;28;20026;-90
2022/07/05 04:01:38;;;;;;;0.77;0.50;;;17.30;99.90;;;;;;5010119;28;20241;-90
2022/07/05 04:04:04;;;;;;;1.42;0.70;;;17.10;99.50;;;;;;4993826;28;20152;-89
2022/07/05 04:06:32;;;;;;;0.95;0.47;;;17.30;99.40;;;;;;5007314;28;20030;-89
2022/07/05 04:08:58;;;;;;;1.15;0.40;;;17.20;99.00;;;;;;5007433;28;20024;-90
2022/07/05 04:11:24;;;;;;;1.10;0.47;;;17.20;98.80;;;;;;5010011;28;20039;-89
2022/07/05 04:13:52;;;;;;;2.88;0.50;;;17.30;98.80;;;;;;5008271;28;20498;-89
2022/07/05 04:16:18;;;;;;;2.15;0.68;;;17.30;98.90;;;;;;4991335;28;20029;-89
2022/07/05 04:18:43;;;;;;;1.45;0.50;;;17.30;98.90;;;;;;4991658;28;20030;-89
2022/07/05 04:21:09;;;;;;;1.70;0.30;;;17.30;98.60;;;;;;5007917;28;20053;-89
2022/07/05 04:23:35;;;;;;;1.13;0.40;;;17.40;98.30;;;;;;5006319;28;20577;-89
2022/07/05 04:26:01;;;;;;;0.90;0.43;;;17.50;98.30;;;;;;5010696;28;20034;-90
2022/07/05 04:28:29;;;;;;;1.65;0.60;;;17.50;98.30;;;;;;4992850;28;20413;-90
2022/07/05 04:30:56;;;;;;;1.92;0.50;;;17.50;98.30;;;;;;4987473;28;20042;-89
2022/07/05 04:33:22;;;;;;;1.95;0.52;;;17.50;98.30;;;;;;4992701;28;20076;-90
2022/07/05 04:35:47;;;;;;;1.33;0.60;;;17.60;98.10;;;;;;4990698;28;20034;-89
2022/07/05 04:38:13;;;;;;;1.33;0.40;;;17.70;98.30;;;;;;4993045;28;20025;-89
2022/07/05 04:40:40;;;;;;;1.88;0.45;;;17.80;98.10;;;;;;4990796;28;20084;-89
2022/07/05 04:43:08;;;;;;;0.82;0.30;;;17.90;98.00;;;;;;5023109;23;20172;-88
2022/07/05 04:45:33;;;;;;;1.20;0.30;;;18.00;97.80;;;;;;5009985;28;20026;-89
2022/07/05 04:47:59;;;;;;;0.40;0.30;;;18.10;97.40;;;;;;5011749;28;20026;-89
2022/07/05 04:50:25;;;;;;;0.60;0.30;;;18.10;97.40;;;;;;5013182;28;20064;-89
2022/07/05 04:52:51;;;;;;;0.88;0.40;;;18.30;96.90;;;;;;5031611;28;20017;-88
2022/07/05 04:55:17;;;;;;;1.13;0.30;;;18.30;96.90;;;;;;5009934;28;20029;-89
2022/07/05 04:57:43;;;;;;;1.17;0.38;;;18.40;96.40;;;;;;5010905;28;20121;-89
2022/07/05 05:00:11;;;;;;;1.17;0.30;;;18.50;96.00;;;;;;5030826;28;20117;-88
2022/07/05 05:02:37;;;;;;;0.73;0.30;;;18.50;95.80;;;;;;5012648;28;20022;-88
2022/07/05 05:05:03;;;;;;;1.13;0.32;;;18.60;95.10;;;;;;5017103;28;20039;-89
2022/07/05 05:07:29;;;;;;;0.65;0.20;;;18.60;95.00;;;;;;4999563;28;20021;-90
2022/07/05 05:09:55;;;;;;;1.13;0.38;;;18.70;95.10;;;;;;5027236;28;20065;-89
2022/07/05 05:12:21;;;;;;;1.02;0.30;;;18.70;95.10;;;;;;5013792;28;20030;-89
2022/07/05 05:14:50;;;;;;;0.82;0.30;;;18.70;95.10;;;;;;5028782;28;20048;-89
2022/07/05 05:17:16;;;;;;;2.08;0.60;;;18.80;94.70;;;;;;5010912;28;20030;-89
2022/07/05 05:19:42;;;;;;;0.52;0.20;;;18.90;94.00;;;;;;5015462;28;20029;-90
2022/07/05 05:22:08;;;;;;;1.13;0.30;;;18.90;94.20;;;;;;5005282;28;20058;-90
2022/07/05 05:24:34;;;;;;;0.52;0.38;;;18.90;94.10;;;;;;5005069;28;20018;-90
2022/07/05 05:27:12;;;;;;;0.50;0.20;;;19.00;94.00;;;;;;5018021;28;20490;-90
2022/07/05 05:29:50;;;;;;;1.05;0.28;;;19.00;93.80;;;;;;5010165;28;20041;-90
2022/07/05 05:32:16;;;;;;;0.80;0.20;;;18.40;93.60;;;;;;5013627;28;20045;-90
2022/07/05 05:34:47;;;;;;;1.10;0.28;;;19.20;93.40;;;;;;5013779;28;20075;-90
2022/07/05 05:37:13;;;;;;;1.65;0.68;;;19.20;93.40;;;;;;5010225;28;20628;-91
2022/07/05 05:39:44;;;;;;;0.82;0.20;;;19.30;93.70;;;;;;5020067;28;20109;-90
2022/07/05 05:42:10;;;;;;;0.85;0.30;;;19.30;92.80;;;;;;5005303;28;20471;-90
2022/07/05 05:44:36;;;;;;;0.65;0.20;;;19.40;93.20;;;;;;5013147;28;20033;-89
2022/07/05 05:47:12;;;;;;;1.67;0.20;;;19.50;92.40;;;;;;5012099;28;20006;-90
2022/07/05 05:49:47;;;;;;;0.73;0.32;;;19.60;92.80;;;;;;5027953;28;20056;-90
2022/07/05 05:52:19;;;;;;;0.98;0.30;;;19.50;93.00;;;;;;5027513;28;20021;-90
2022/07/05 05:54:54;;;;;;;0.65;0.20;;;19.60;92.70;;;;;;5008942;28;20034;-89
2022/07/05 05:57:20;;;;;;;1.85;0.43;;;19.80;92.50;;;;;;5023453;28;20029;-91
2022/07/05 05:59:57;;;;;;;1.00;0.20;;;19.80;92.90;;;;;;5011014;28;20144;-90
2022/07/05 06:02:23;;;;;;;1.92;0.30;;;19.80;92.60;;;;;;5023592;28;20439;-90
2022/07/05 06:04:49;;;;;;;0.95;0.20;;;19.90;92.80;;;;;;5001022;28;20057;-90
2022/07/05 06:07:15;;;;;;;1.10;0.30;;;20.00;92.50;;;;;;5001374;28;20521;-91
2022/07/05 06:09:48;;;;;;;0.68;0.20;;;20.10;91.90;;;;;;4998125;28;20034;-91
2022/07/05 06:12:14;;;;;;;0.68;0.32;;;19.80;91.80;;;;;;5008439;28;20037;-90
2022/07/05 06:14:43;;;;;;;2.38;0.73;;;21.10;91.80;;;;;;5033010;28;20072;-91
2022/07/05 06:17:16;;;;;;;0.70;0.30;;;20.20;91.60;;;;;;5010793;28;20061;-89
2022/07/05 06:19:48;;;;;;;0.75;0.30;;;20.30;91.70;;;;;;5032817;28;20053;-90
2022/07/05 06:22:16;;;;;;;;;;;20.40;91.90;;;;;;5002998;28;20018;-91
2022/07/05 06:24:51;;;;;;;0.93;0.28;;;20.50;92.40;;;;;;5008065;28;20383;-91
2022/07/05 06:27:16;;;;;;;0.43;0.20;;;20.60;91.90;;;;;;5011840;28;20029;-91
2022/07/05 06:29:44;;;;;;;1.10;0.30;;;20.80;91.40;;;;;;5034249;28;20025;-90
2022/07/05 06:32:10;;;;;;;1.67;0.32;;;20.80;90.20;;;;;;5030668;28;20100;-91
2022/07/05 06:34:38;;;;;;;1.13;0.35;;;21.00;90.20;;;;;;5023123;28;20030;-91
2022/07/05 06:37:19;;;;;;;1.00;0.20;;;20.90;90.50;;;;;;5022539;28;20069;-90
2022/07/05 06:39:44;;;;;;;0.93;0.30;;;21.10;90.20;;;;;;5005284;28;20021;-90
2022/07/05 06:42:12;;;;;;;1.52;0.40;;;21.30;90.00;;;;;;5007973;28;20034;-91
2022/07/05 06:44:38;;;;;;;0.88;0.30;;;21.10;90.00;;;;;;5015006;28;20025;-90
2022/07/05 06:47:03;;;;;;;1.25;0.30;;;21.10;90.00;;;;;;5009721;28;20478;-89
2022/07/05 06:49:29;;;;;;;0.25;0.20;;;21.20;89.20;;;;;;5010106;28;20508;-91
2022/07/05 06:51:55;;;;;;;0.98;0.30;;;20.60;89.50;;;;;;5010456;28;20045;-90
2022/07/05 06:54:21;;;;;;;0.40;0.20;;;21.60;89.40;;;;;;5009013;28;20033;-92
2022/07/05 06:56:46;;;;;;;0.15;0.10;;;21.70;89.70;;;;;;5035350;28;20021;-91
2022/07/05 06:59:12;;;;;;;0.50;0.20;;;21.80;88.10;;;;;;5010443;28;20018;-92
2022/07/05 07:01:37;;;;;;;0.50;0.20;;;21.70;87.70;;;;;;5003962;28;20128;-92
2022/07/05 07:04:03;;;;;;;1.48;0.30;;;21.80;88.00;;;;;;5008732;28;20033;-92
2022/07/05 07:06:29;;;;;;;0.63;0.25;;;21.80;88.30;;;;;;5020618;28;20017;-92
2022/07/05 07:11:41;;;;;;;0.77;0.28;;;21.90;87.50;;;;;;5037690;28;20063;-92
2022/07/05 07:14:07;;;;;;;0.60;0.30;;;21.30;87.70;;;;;;5004271;28;20061;-91
2022/07/05 07:16:33;;;;;;;0.52;0.20;;;22.20;87.50;;;;;;5014152;28;20079;-91
2022/07/05 07:19:02;;;;;;;1.50;0.47;;;22.20;86.80;;;;;;5016909;28;20036;-92
2022/07/05 07:21:28;;;;;;;0.50;0.20;;;22.20;86.80;;;;;;5011279;28;20108;-92
2022/07/05 07:23:56;;;;;;;0.68;0.20;;;22.10;87.50;;;;;;5015538;28;20469;-92
2022/07/05 07:26:22;;;;;;;1.08;0.25;;;22.40;87.00;;;;;;5015542;28;20049;-92
2022/07/05 07:28:48;;;;;;;0.88;0.40;;;22.70;87.40;;;;;;5008967;28;20083;-90
2022/07/05 07:31:13;;;;;;;0.40;0.20;;;22.60;86.20;;;;;;5020049;28;20025;-91
2022/07/05 07:33:39;;;;;;;0.90;0.25;;;22.70;86.40;;;;;;5030112;28;20096;-91
2022/07/05 07:36:05;;;;;;;0.15;0.10;;;22.60;86.10;;;;;;5007458;28;20026;-90
2022/07/05 07:38:36;;;;;;;0.45;0.20;;;22.60;86.80;;;;;;5032888;28;20025;-91
2022/07/05 07:41:02;;;;;;;1.52;0.20;;;22.70;87.30;;;;;;5016235;28;20025;-91
2022/07/05 07:43:28;;;;;;;0.20;0.10;;;22.80;85.70;;;;;;5028017;28;20042;-92
2022/07/05 07:45:56;;;;;;;0.35;0.20;;;22.30;85.70;;;;;;5014854;28;20079;-91
2022/07/05 07:48:22;;;;;;;0.55;0.20;;;23.10;85.80;;;;;;5015599;28;20052;-91
2022/07/05 07:50:48;;;;;;;1.02;0.22;;;23.30;86.00;;;;;;5013496;28;20054;-91
2022/07/05 07:53:14;;;;;;;0.85;0.30;;;23.30;86.90;;;;;;5017708;28;20429;-92
2022/07/05 07:55:39;;;;;;;0.30;0.20;;;23.40;86.90;;;;;;5037431;28;20028;-90
2022/07/05 07:58:07;;;;;;;0.45;0.20;;;23.30;84.80;;;;;;5013994;28;20025;-90
2022/07/05 08:00:32;;;;;;;0.50;0.20;;;23.30;84.90;;;;;;5009244;28;20028;-91
2022/07/05 08:03:04;;;;;;;0.50;0.20;;;24.00;84.30;;;;;;5014327;28;20025;-92
2022/07/05 08:05:30;;;;;;;0.90;0.20;;;23.30;83.50;;;;;;5028765;28;20025;-91
2022/07/05 08:07:56;;;;;;;1.40;0.40;;;23.50;83.60;;;;;;5008278;28;20148;-91
2022/07/05 08:10:24;;;;;;;0.68;0.20;;;23.80;82.40;;;;;;5011721;28;20481;-91
2022/07/05 08:12:50;;;;;;;0.20;0.15;;;24.10;81.30;;;;;;5002359;28;20022;-91
2022/07/05 08:15:15;;;;;;;0.40;0.20;;;24.10;79.50;;;;;;5007740;28;20033;-91
2022/07/05 08:21:30;;;;;;;0.52;0.20;;;24.20;78.70;;;;;;5004819;28;20022;-91
2022/07/05 08:23:13;;;;;;;1.25;0.20;;;24.30;78.50;;;;;;5025226;28;20029;-92
2022/07/05 08:25:39;;;;;;;0.43;0.10;;;24.30;79.30;;;;;;5011284;28;20389;-91
2022/07/05 08:28:15;;;;;;;0.13;0.10;;;24.50;79.20;;;;;;5014255;28;20033;-91
2022/07/05 08:30:41;;;;;;;0.65;0.30;;;24.60;79.30;;;;;;5013182;28;20143;-91
2022/07/05 08:33:10;;;;;;;1.50;0.40;;;24.70;79.20;;;;;;5013603;28;20069;-91
2022/07/05 08:35:36;;;;;;;0.20;0.10;;;25.80;78.60;;;;;;5013492;28;20120;-92
2022/07/05 08:38:01;;;;;;;1.10;0.30;;;24.90;77.50;;;;;;5018602;28;20104;-92
2022/07/05 08:40:31;;;;;;;0.40;0.20;;;26.10;78.90;;;;;;5005993;28;20021;-91
2022/07/05 08:42:58;;;;;;;1.05;0.20;;;25.10;78.20;;;;;;5009001;28;20477;-92
2022/07/05 08:45:34;;;;;;;0.82;0.28;;;25.30;77.80;;;;;;5017748;28;20021;-93
2022/07/05 08:48:06;;;;;;;0.70;0.30;;;25.40;76.20;;;;;;5013345;28;20536;-92
2022/07/05 08:50:37;;;;;;;1.83;0.22;;;25.50;76.50;;;;;;5011162;28;20144;-91
2022/07/05 08:53:04;;;;;;;0.90;0.20;;;25.00;75.30;;;;;;5026037;28;20026;-91
2022/07/05 08:55:32;;;;;;;0.40;0.20;;;25.40;76.70;;;;;;5009589;28;20035;-92
2022/07/05 08:57:58;;;;;;;0.82;0.20;;;25.40;76.90;;;;;;5008542;28;20025;-90
2022/07/05 09:00:26;;;;;;;1.45;0.30;;;25.40;77.60;;;;;;5014434;28;20036;-91
2022/07/05 09:02:56;;;;;;;0.30;0.20;;;25.40;78.40;;;;;;5012023;28;20014;-92
2022/07/05 09:05:30;;;;;;;1.15;0.38;;;25.50;78.10;;;;;;5027891;28;20022;-92
2022/07/05 09:08:00;;;;;;;0.60;0.20;;;25.40;76.50;;;;;;5009881;28;20030;-92
2022/07/05 09:10:28;;;;;;;0.30;0.20;;;25.80;76.70;;;;;;5007231;28;20037;-91
2022/07/05 09:12:55;;;;;;;1.63;0.40;;;25.80;77.10;;;;;;5025296;28;20064;-90
2022/07/05 09:15:27;;;;;;;0.40;0.20;;;25.90;76.10;;;;;;5005702;28;20021;-92
2022/07/05 09:17:55;;;;;;;1.33;0.20;;;26.60;75.10;;;;;;5005370;28;20084;-91
2022/07/05 09:20:21;;;;;;;0.95;0.20;;;26.00;76.60;;;;;;5010770;28;20017;-91
2022/07/05 09:22:53;;;;;;;0.90;0.30;;;26.30;74.40;;;;;;5025115;28;20067;-92
2022/07/05 09:25:32;;;;;;;0.25;0.15;;;26.30;74.90;;;;;;5008439;28;20025;-91
2022/07/05 09:28:02;;;;;;;0.47;0.22;;;26.60;75.20;;;;;;5012504;28;20060;-92
2022/07/05 09:30:33;;;;;;;1.17;0.20;;;26.50;75.00;;;;;;5004635;28;20056;-92
2022/07/05 09:33:14;;;;;;;0.50;0.10;;;26.60;74.10;;;;;;5013270;28;20025;-92
2022/07/05 09:35:42;;;;;;;0.63;0.20;;;26.60;73.00;;;;;;5004857;28;20032;-92
2022/07/05 09:38:21;;;;;;;0.40;0.20;;;26.80;72.50;;;;;;5014546;28;20108;-92
2022/07/05 09:40:57;;;;;;;0.60;0.20;;;27.00;70.10;;;;;;5034251;28;20017;-91
2022/07/05 09:43:26;;;;;;;1.30;0.22;;;26.80;70.00;;;;;;5025403;28;20060;-92
2022/07/05 09:46:02;;;;;;;0.47;0.30;;;26.90;72.20;;;;;;5010600;28;20024;-91
2022/07/05 09:48:33;;;;;;;1.52;0.20;;;27.20;73.10;;;;;;5012263;28;20021;-92
2022/07/05 09:51:09;;;;;;;1.48;0.20;;;27.10;71.30;;;;;;5010707;28;20532;-91
2022/07/05 09:53:55;;;;;;;1.05;0.20;;;27.10;70.60;;;;;;5029214;28;20045;-91
2022/07/05 09:56:29;;;;;;;0.70;0.32;;;26.90;70.80;;;;;;4999792;28;20112;-92
2022/07/05 09:58:55;;;;;;;0.60;0.20;;;26.70;71.30;;;;;;5022411;28;20040;-92
2022/07/05 10:04:27;;;;;;;0.17;0.10;;;27.00;71.00;;;;;;5025394;28;20379;-91
2022/07/05 10:06:55;;;;;;;1.35;0.20;;;28.40;71.40;;;;;;5008945;28;20025;-92
2022/07/05 10:09:21;;;;;;;1.90;0.38;;;27.60;69.50;;;;;;5014663;28;20047;-90
2022/07/05 10:11:47;;;;;;;0.57;0.20;;;27.80;69.70;;;;;;5002330;28;20022;-90
2022/07/05 10:14:21;;;;;;;1.13;0.20;;;28.00;68.50;;;;;;5009524;28;20026;-91
2022/07/05 10:16:54;;;;;;;1.15;0.32;;;28.20;70.30;;;;;;5009639;28;20032;-92
2022/07/05 10:19:21;;;;;;;0.52;0.10;;;28.20;67.50;;;;;;5035378;28;20018;-91
2022/07/05 10:21:48;;;;;;;0.88;0.20;;;28.30;68.10;;;;;;5000921;28;20022;-92
2022/07/05 10:24:16;;;;;;;0.40;0.10;;;28.50;66.70;;;;;;5009209;28;20104;-91
2022/07/05 10:26:42;;;;;;;0.28;0.15;;;28.30;65.80;;;;;;5020545;28;20104;-91
2022/07/05 10:29:09;;;;;;;0.43;0.22;;;28.30;65.20;;;;;;5008530;28;20060;-92
2022/07/05 10:31:38;;;;;;;0.45;0.10;;;28.40;64.00;;;;;;5015828;28;20121;-91
2022/07/05 10:34:07;;;;;;;1.73;0.82;;;28.50;66.70;;;;;;5029045;28;20493;-90
2022/07/05 10:36:35;;;;;;;0.68;0.20;;;28.60;66.00;;;;;;5004810;28;20422;-91
2022/07/05 10:39:04;;;;;;;0.10;0.10;;;28.30;64.30;;;;;;5011761;28;20567;-91
2022/07/05 10:41:33;;;;;;;0.90;0.20;;;27.90;64.30;;;;;;5009520;28;20018;-91
2022/07/05 10:43:59;;;;;;;0.45;0.10;;;28.30;65.50;;;;;;5041755;22;20049;-89
2022/07/05 10:46:41;;;;;;;0.32;0.10;;;28.70;66.90;;;;;;5012814;28;20454;-90
2022/07/05 10:49:11;;;;;;;0.52;0.20;;;28.80;64.90;;;;;;5028702;28;20024;-89
2022/07/05 10:51:37;;;;;;;1.05;0.20;;;28.70;61.90;;;;;;5010021;28;20018;-89
2022/07/05 10:54:03;;;;;;;0.65;0.20;;;28.70;63.60;;;;;;5030318;28;20036;-90
2022/07/05 10:56:38;;;;;;;2.53;0.20;;;28.60;64.70;;;;;;5012046;28;20100;-90
2022/07/05 10:59:06;;;;;;;0.38;0.25;;;28.40;65.60;;;;;;5033657;28;20129;-90
2022/07/05 11:01:34;;;;;;;0.40;0.10;;;28.50;64.40;;;;;;5015236;28;20022;-90
2022/07/05 11:04:02;;;;;;;0.60;0.13;;;29.00;62.90;;;;;;5016188;28;20494;-90
2022/07/05 11:06:30;;;;;;;1.00;0.10;;;29.30;63.40;;;;;;5015270;28;20022;-89
2022/07/05 11:08:59;;;;;;;0.65;0.30;;;29.40;63.10;;;;;;5017370;28;20025;-90
2022/07/05 11:11:27;;;;;;;0.30;0.10;;;29.70;63.30;;;;;;5015926;28;20027;-88
2022/07/05 11:13:58;;;;;;;0.35;0.17;;;29.30;61.70;;;;;;5034077;28;20389;-89
2022/07/05 11:16:35;;;;;;;0.32;0.10;;;29.40;63.80;;;;;;5032493;28;20030;-90
2022/07/05 11:19:06;;;;;;;0.40;0.20;;;29.80;63.20;;;;;;5016555;28;20056;-89
2022/07/05 11:21:32;;;;;;;;;;;30.10;63.20;;;;;;5035448;28;20029;-91
2022/07/05 11:24:20;;;;;;;0.40;0.10;;;30.40;62.30;;;;;;5022561;28;19906;-90
2022/07/05 11:26:48;;;;;;;0.50;0.20;;;30.60;60.90;;;;;;5016020;28;20021;-89
2022/07/05 11:29:42;;;;;;;0.82;0.20;;;30.70;60.80;;;;;;5015624;28;20485;-90
2022/07/05 11:32:11;;;;;;;0.65;0.15;;;30.60;59.50;;;;;;5015553;28;20045;-90
2022/07/05 11:34:37;;;;;;;0.47;0.22;;;30.40;60.00;;;;;;5016687;28;20017;-90
2022/07/05 11:37:21;;;;;;;0.10;0.10;;;29.60;61.10;;;;;;5032256;28;20034;-90
2022/07/05 11:40:07;;;;;;;0.40;0.20;;;29.60;62.20;;;;;;5016122;28;20023;-90
2022/07/05 11:42:34;;;;;;;0.40;0.25;;;29.50;61.00;;;;;;5016372;28;20022;-90
2022/07/05 11:45:00;;;;;;;0.50;0.20;;;29.40;61.00;;;;;;5011562;28;20440;-90
2022/07/05 11:47:27;;;;;;;0.55;0.20;;;29.30;62.70;;;;;;5034190;28;20032;-90
2022/07/05 11:49:54;;;;;;;0.80;0.20;;;29.70;60.70;;;;;;5016338;28;20450;-90
2022/07/05 11:52:28;;;;;;;0.82;0.25;;;30.00;60.80;;;;;;5027178;28;20013;-88
2022/07/05 11:54:54;;;;;;;2.50;0.10;;;30.10;60.70;;;;;;5006202;28;20049;-88
2022/07/05 11:57:20;;;;;;;0.30;0.10;;;30.10;60.60;;;;;;5026917;28;20063;-91
2022/07/05 11:59:47;;;;;;;0.50;0.25;;;30.50;59.80;;;;;;5012878;28;20022;-90
2022/07/05 12:02:13;;;;;;;0.17;0.10;;;30.50;59.10;;;;;;5015876;28;20432;-89
2022/07/05 12:04:38;;;;;;;0.45;0.20;;;30.50;60.10;;;;;;5017938;28;20017;-89
2022/07/05 12:07:04;;;;;;;0.73;0.20;;;30.40;60.00;;;;;;5015412;28;20627;-89
2022/07/05 12:15:19;;;;;;;0.20;0.10;;;30.70;60.50;;;;;;5030817;28;20087;-90
2022/07/05 12:17:49;;;;;;;0.43;0.15;;;31.00;59.80;;;;;;5018010;28;20036;-89
2022/07/05 12:20:24;;;;;;;1.10;0.10;;;31.00;59.10;;;;;;5020002;28;20108;-90
2022/07/05 12:22:49;;;;;;;1.02;0.20;;;30.20;60.30;;;;;;4997811;28;20109;-89
2022/07/05 12:25:23;;;;;;;0.40;0.13;;;30.10;60.50;;;;;;5032883;28;20056;-92
2022/07/05 12:27:50;;;;;;;0.40;0.10;;;30.00;59.80;;;;;;5032122;28;20059;-89
2022/07/05 12:30:17;;;;;;;1.40;0.20;;;30.00;60.10;;;;;;5013244;28;20026;-90
2022/07/05 12:32:59;;;;;;;0.20;0.10;;;30.10;60.40;;;;;;5003364;28;20152;-90
2022/07/05 12:35:39;;;;;;;1.17;0.60;;;30.40;59.90;;;;;;5024786;28;20393;-90
2022/07/05 12:38:09;;;;;;;1.25;0.20;;;30.60;59.50;;;;;;5029375;28;20400;-90
2022/07/05 12:40:38;;;;;;;0.15;0.10;;;30.70;59.80;;;;;;5015234;28;20055;-90
2022/07/05 12:43:10;;;;;;;0.55;0.20;;;30.60;59.20;;;;;;5012893;28;20041;-90
2022/07/05 12:45:38;;;;;;;0.50;0.20;;;30.90;59.50;;;;;;5027710;28;20029;-90
2022/07/05 12:48:05;;;;;;;0.47;0.20;;;30.90;59.90;;;;;;5013898;28;20104;-90
2022/07/05 12:50:51;;;;;;;1.88;0.17;;;31.20;60.50;;;;;;5008131;28;20026;-89
2022/07/05 12:59:04;;;;;;;0.70;0.20;;;31.30;58.80;;;;;;5031796;28;20540;-89
2022/07/05 13:01:48;;;;;;;0.05;0.00;;;31.50;58.90;;;;;;5008294;28;20021;-91
2022/07/05 13:04:15;;;;;;;0.30;0.13;;;31.50;60.00;;;;;;5031146;28;20026;-90
2022/07/05 13:06:44;;;;;;;0.47;0.20;;;31.90;59.00;;;;;;5031852;28;20021;-90
2022/07/05 13:09:11;;;;;;;0.60;0.28;;;32.10;58.50;;;;;;5012928;28;20505;-88
2022/07/05 13:11:36;;;;;;;0.47;0.20;;;32.30;58.60;;;;;;5014074;28;20029;-90